createdAt,value
2023-06-05T00:00:50.055Z,16.12
2023-06-05T00:01:51.876Z,16.11
2023-06-05T00:02:53.596Z,16.1
2023-06-05T00:03:55.565Z,16.1
2023-06-05T00:04:57.093Z,16.08
2023-06-05T00:05:58.723Z,16.08
2023-06-05T00:07:00.463Z,16.07
2023-06-05T00:08:02.415Z,16.06
2023-06-05T00:09:03.956Z,16.05
2023-06-05T00:10:05.660Z,16.04
2023-06-05T00:11:07.686Z,16.02
2023-06-05T00:12:09.125Z,16.01
2023-06-05T00:13:10.861Z,15.99
2023-06-05T00:14:12.632Z,15.97
2023-06-05T00:15:14.312Z,15.96
2023-06-05T00:16:16.113Z,15.95
2023-06-05T00:17:17.796Z,15.94
2023-06-05T00:18:19.522Z,15.92
2023-06-05T00:19:21.534Z,15.91
2023-06-05T00:20:22.996Z,15.89
2023-06-05T00:21:24.719Z,15.88
2023-06-05T00:22:26.457Z,15.86
2023-06-05T00:23:28.266Z,15.85
2023-06-05T00:24:29.933Z,15.83
2023-06-05T00:25:31.736Z,15.82
2023-06-05T00:26:33.379Z,15.81
2023-06-05T00:27:35.144Z,15.78
2023-06-05T00:28:36.857Z,15.77
2023-06-05T00:29:38.614Z,15.75
2023-06-05T00:30:40.334Z,15.74
2023-06-05T00:31:42.083Z,15.72
2023-06-05T00:32:43.841Z,15.7
2023-06-05T00:33:45.524Z,15.67
2023-06-05T00:34:47.294Z,15.66
2023-06-05T00:35:49.018Z,15.64
2023-06-05T00:36:50.792Z,15.63
2023-06-05T00:37:52.478Z,15.62
2023-06-05T00:38:54.200Z,15.6
2023-06-05T00:39:55.936Z,15.59
2023-06-05T00:40:57.653Z,15.57
2023-06-05T00:41:59.401Z,15.55
2023-06-05T00:43:01.140Z,15.53
2023-06-05T00:44:02.921Z,15.5
2023-06-05T00:45:04.618Z,15.48
2023-06-05T00:46:06.377Z,15.47
2023-06-05T00:47:08.056Z,15.45
2023-06-05T00:48:09.816Z,15.44
2023-06-05T00:49:11.532Z,15.41
2023-06-05T00:50:13.269Z,15.39
2023-06-05T00:51:14.998Z,15.38
2023-06-05T00:52:16.710Z,15.36
2023-06-05T00:53:18.465Z,15.34
2023-06-05T00:54:20.185Z,15.32
2023-06-05T00:55:21.941Z,15.31
2023-06-05T00:56:23.661Z,15.3
2023-06-05T00:57:25.404Z,15.29
2023-06-05T00:58:27.140Z,15.28
2023-06-05T00:59:28.877Z,15.26
2023-06-05T01:00:30.613Z,15.25
2023-06-05T01:01:32.333Z,15.23
2023-06-05T01:02:34.115Z,15.2
2023-06-05T01:03:35.821Z,15.18
2023-06-05T01:04:37.538Z,15.15
2023-06-05T01:05:39.256Z,15.11
2023-06-05T01:06:41.022Z,15.08
2023-06-05T01:07:42.886Z,15.02
2023-06-05T01:08:44.342Z,14.97
2023-06-05T01:09:46.076Z,14.91
2023-06-05T01:10:47.808Z,14.87
2023-06-05T01:11:49.529Z,14.8
2023-06-05T01:12:51.272Z,14.76
2023-06-05T01:13:52.998Z,14.71
2023-06-05T01:14:54.713Z,14.65
2023-06-05T01:15:56.486Z,14.6
2023-06-05T01:16:58.308Z,14.53
2023-06-05T01:18:00.144Z,14.48
2023-06-05T01:19:01.656Z,14.42
2023-06-05T01:20:03.378Z,14.35
2023-06-05T01:21:05.138Z,14.29
2023-06-05T01:22:06.866Z,14.23
2023-06-05T01:23:08.593Z,14.18
2023-06-05T01:24:10.330Z,14.11
2023-06-05T01:25:12.192Z,14.05
2023-06-05T01:26:13.813Z,14
2023-06-05T01:27:15.547Z,13.94
2023-06-05T01:28:17.283Z,13.89
2023-06-05T01:29:19.019Z,13.83
2023-06-05T01:30:20.719Z,13.78
2023-06-05T01:31:22.610Z,13.72
2023-06-05T01:32:24.231Z,13.67
2023-06-05T01:33:25.945Z,13.63
2023-06-05T01:34:27.665Z,13.59
2023-06-05T01:35:29.453Z,13.55
2023-06-05T01:36:31.141Z,13.51
2023-06-05T01:37:32.860Z,13.46
2023-06-05T01:38:34.593Z,13.43
2023-06-05T01:39:36.329Z,13.39
2023-06-05T01:40:38.073Z,13.35
2023-06-05T01:41:39.808Z,13.32
2023-06-05T01:42:41.524Z,13.29
2023-06-05T01:43:43.291Z,13.26
2023-06-05T01:44:45.014Z,13.23
2023-06-05T01:45:46.728Z,13.2
2023-06-05T01:46:48.535Z,13.17
2023-06-05T01:47:50.222Z,13.14
2023-06-05T01:48:51.950Z,13.12
2023-06-05T01:49:53.687Z,13.09
2023-06-05T01:50:55.384Z,13.08
2023-06-05T01:51:57.145Z,13.05
2023-06-05T01:52:58.867Z,13.03
2023-06-05T01:54:00.620Z,13.02
2023-06-05T01:55:02.322Z,13
2023-06-05T01:56:04.070Z,12.97
2023-06-05T01:57:05.866Z,12.96
2023-06-05T01:58:07.542Z,12.94
2023-06-05T01:59:09.303Z,12.92
2023-06-05T02:00:11.020Z,12.9
2023-06-05T02:01:12.729Z,12.88
2023-06-05T02:02:14.477Z,12.86
2023-06-05T02:03:16.342Z,12.84
2023-06-05T02:04:17.926Z,12.82
2023-06-05T02:05:19.669Z,12.81
2023-06-05T02:06:21.405Z,12.8
2023-06-05T02:07:23.158Z,12.78
2023-06-05T02:08:24.866Z,12.77
2023-06-05T02:09:26.603Z,12.75
2023-06-05T02:10:28.338Z,12.73
2023-06-05T02:11:30.075Z,12.71
2023-06-05T02:12:31.802Z,12.7
2023-06-05T02:13:33.531Z,12.68
2023-06-05T02:14:35.275Z,12.67
2023-06-05T02:15:37.008Z,12.65
2023-06-05T02:16:38.786Z,12.64
2023-06-05T02:17:40.520Z,12.62
2023-06-05T02:18:42.218Z,12.59
2023-06-05T02:19:43.934Z,12.57
2023-06-05T02:20:45.692Z,12.56
2023-06-05T02:21:47.395Z,12.53
2023-06-05T02:22:49.190Z,12.5
2023-06-05T02:23:50.923Z,12.47
2023-06-05T02:24:52.594Z,12.43
2023-06-05T02:25:54.357Z,12.4
2023-06-05T02:26:56.093Z,12.38
2023-06-05T02:27:57.804Z,12.34
2023-06-05T02:28:59.538Z,12.31
2023-06-05T02:30:01.263Z,12.27
2023-06-05T02:31:03.025Z,12.23
2023-06-05T02:32:04.788Z,12.2
2023-06-05T02:33:06.539Z,12.16
2023-06-05T02:34:08.237Z,12.12
2023-06-05T02:35:09.940Z,12.07
2023-06-05T02:36:11.681Z,12.03
2023-06-05T02:37:13.419Z,12
2023-06-05T02:38:15.158Z,11.96
2023-06-05T02:39:16.879Z,11.92
2023-06-05T02:40:18.743Z,11.89
2023-06-05T02:41:20.357Z,11.85
2023-06-05T02:42:22.096Z,11.81
2023-06-05T02:43:23.833Z,11.79
2023-06-05T02:44:25.542Z,11.77
2023-06-05T02:45:27.297Z,11.75
2023-06-05T02:46:29.094Z,11.73
2023-06-05T02:47:30.768Z,11.7
2023-06-05T02:48:32.483Z,11.69
2023-06-05T02:49:34.226Z,11.68
2023-06-05T02:50:35.953Z,11.67
2023-06-05T02:51:37.727Z,11.66
2023-06-05T02:52:39.426Z,11.66
2023-06-05T02:53:41.152Z,11.66
2023-06-05T02:54:42.887Z,11.66
2023-06-05T02:55:44.617Z,11.65
2023-06-05T02:56:46.380Z,11.64
2023-06-05T02:57:48.075Z,11.64
2023-06-05T02:58:49.839Z,11.65
2023-06-05T02:59:51.592Z,11.64
2023-06-05T03:00:53.328Z,11.64
2023-06-05T03:01:55.099Z,11.64
2023-06-05T03:02:57.168Z,11.65
2023-06-05T03:03:58.653Z,11.65
2023-06-05T03:05:00.285Z,11.68
2023-06-05T03:06:01.952Z,11.7
2023-06-05T03:07:03.677Z,11.72
2023-06-05T03:08:05.432Z,11.75
2023-06-05T03:09:07.163Z,11.78
2023-06-05T03:10:08.874Z,11.81
2023-06-05T03:11:10.865Z,11.84
2023-06-05T03:12:12.371Z,11.88
2023-06-05T03:13:14.117Z,11.91
2023-06-05T03:14:15.820Z,11.96
2023-06-05T03:15:17.571Z,11.97
2023-06-05T03:16:19.356Z,12.01
2023-06-05T03:17:21.083Z,12.04
2023-06-05T03:18:22.768Z,12.08
2023-06-05T03:19:24.500Z,12.1
2023-06-05T03:20:26.491Z,12.14
2023-06-05T03:21:27.960Z,12.18
2023-06-05T03:22:29.696Z,12.22
2023-06-05T03:23:31.463Z,12.25
2023-06-05T03:24:33.180Z,12.28
2023-06-05T03:25:34.879Z,12.31
2023-06-05T03:26:36.629Z,12.33
2023-06-05T03:27:38.366Z,12.36
2023-06-05T03:28:40.077Z,12.39
2023-06-05T03:29:41.841Z,12.39
2023-06-05T03:30:43.566Z,12.4
2023-06-05T03:31:45.289Z,12.41
2023-06-05T03:32:47.055Z,12.42
2023-06-05T03:33:48.825Z,12.42
2023-06-05T03:34:50.490Z,12.44
2023-06-05T03:35:52.208Z,12.45
2023-06-05T03:36:53.952Z,12.46
2023-06-05T03:37:55.672Z,12.46
2023-06-05T03:38:57.422Z,12.46
2023-06-05T03:39:59.225Z,12.48
2023-06-05T03:41:01.074Z,12.49
2023-06-05T03:42:02.631Z,12.49
2023-06-05T03:43:04.355Z,12.5
2023-06-05T03:44:06.164Z,12.51
2023-06-05T03:45:07.845Z,12.52
2023-06-05T03:46:09.597Z,12.54
2023-06-05T03:47:11.221Z,12.56
2023-06-05T03:48:12.433Z,12.58
2023-06-05T03:49:12.862Z,12.59
2023-06-05T03:50:14.520Z,12.61
2023-06-05T03:51:16.242Z,12.63
2023-06-05T03:52:17.994Z,12.63
2023-06-05T03:53:19.698Z,12.64
2023-06-05T03:54:21.430Z,12.65
2023-06-05T03:55:23.176Z,12.65
2023-06-05T03:56:24.915Z,12.66
2023-06-05T03:57:26.628Z,12.66
2023-06-05T03:58:28.360Z,12.66
2023-06-05T04:01:30.236Z,12.66
2023-06-05T04:10:51.986Z,12.73
2023-06-05T04:13:56.708Z,12.76
2023-06-05T04:14:59.497Z,12.76
2023-06-05T04:16:00.212Z,12.77
2023-06-05T04:17:01.902Z,12.77
2023-06-05T04:18:03.663Z,12.77
2023-06-05T04:19:05.297Z,12.78
2023-06-05T04:20:07.033Z,12.79
2023-06-05T04:21:08.956Z,12.79
2023-06-05T04:22:10.485Z,12.81
2023-06-05T04:23:22.527Z,12.82
2023-06-05T04:24:24.244Z,12.83
2023-06-05T04:25:25.964Z,12.84
2023-06-05T04:26:27.687Z,12.84
2023-06-05T04:27:29.444Z,12.85
2023-06-05T04:28:31.151Z,12.86
2023-06-05T04:29:32.886Z,12.87
2023-06-05T04:30:34.610Z,12.89
2023-06-05T04:31:36.350Z,12.9
2023-06-05T04:32:38.104Z,12.91
2023-06-05T04:33:39.776Z,12.92
2023-06-05T04:34:41.505Z,12.95
2023-06-05T04:35:43.198Z,12.97
2023-06-05T04:36:44.943Z,12.99
2023-06-05T04:37:46.759Z,13.01
2023-06-05T04:38:48.388Z,13.04
2023-06-05T04:39:50.094Z,13.06
2023-06-05T04:40:51.851Z,13.09
2023-06-05T04:42:06.631Z,13.12
2023-06-05T04:42:55.335Z,13.14
2023-06-05T04:43:57.054Z,13.16
2023-06-05T04:44:58.785Z,13.19
2023-06-05T04:46:00.529Z,13.21
2023-06-05T04:47:02.254Z,13.24
2023-06-05T04:48:03.999Z,13.25
2023-06-05T04:49:05.720Z,13.27
2023-06-05T04:50:07.451Z,13.29
2023-06-05T04:51:09.388Z,13.31
2023-06-05T04:52:10.921Z,13.33
2023-06-05T04:53:12.645Z,13.34
2023-06-05T04:54:14.382Z,13.36
2023-06-05T04:55:16.986Z,13.39
2023-06-05T04:56:17.841Z,13.42
2023-06-05T04:57:19.603Z,13.44
2023-06-05T04:58:21.331Z,13.46
2023-06-05T04:59:23.046Z,13.48
2023-06-05T05:00:51.652Z,13.51
2023-06-05T05:02:17.277Z,13.54
2023-06-05T05:03:26.954Z,13.57
2023-06-05T05:04:31.605Z,13.61
2023-06-05T05:05:33.329Z,13.64
2023-06-05T05:06:35.057Z,13.67
2023-06-05T05:07:36.870Z,13.7
2023-06-05T05:08:38.576Z,13.72
2023-06-05T05:09:40.302Z,13.77
2023-06-05T05:10:42.002Z,13.8
2023-06-05T05:11:43.734Z,13.83
2023-06-05T05:12:45.485Z,13.87
2023-06-05T05:13:47.209Z,13.89
2023-06-05T05:14:48.945Z,13.92
2023-06-05T05:15:50.749Z,13.95
2023-06-05T05:16:52.409Z,13.98
2023-06-05T05:17:54.201Z,14
2023-06-05T05:18:55.874Z,14.04
2023-06-05T05:19:57.622Z,14.08
2023-06-05T05:20:59.354Z,14.12
2023-06-05T05:22:01.079Z,14.16
2023-06-05T05:23:02.820Z,14.2
2023-06-05T05:24:04.665Z,14.24
2023-06-05T05:25:06.274Z,14.3
2023-06-05T05:26:08.037Z,14.35
2023-06-05T05:27:09.732Z,14.4
2023-06-05T05:28:11.486Z,14.44
2023-06-05T05:29:13.241Z,14.5
2023-06-05T05:30:14.939Z,14.54
2023-06-05T05:31:29.798Z,14.62
2023-06-05T05:32:31.550Z,14.67
2023-06-05T05:33:33.458Z,14.76
2023-06-05T05:34:35.045Z,14.84
2023-06-05T05:35:36.687Z,14.92
2023-06-05T05:36:38.388Z,15.01
2023-06-05T05:37:40.110Z,15.09
2023-06-05T05:38:41.852Z,15.18
2023-06-05T05:39:43.601Z,15.27
2023-06-05T05:40:45.326Z,15.38
2023-06-05T05:41:47.063Z,15.49
2023-06-05T05:42:48.789Z,15.6
2023-06-05T05:43:50.529Z,15.71
2023-06-05T05:44:52.256Z,15.83
2023-06-05T05:45:54.025Z,15.94
2023-06-05T05:46:55.730Z,16.04
2023-06-05T05:47:57.495Z,16.14
2023-06-05T05:48:59.219Z,16.24
2023-06-05T05:50:00.942Z,16.34
2023-06-05T05:51:02.706Z,16.42
2023-06-05T05:52:04.386Z,16.5
2023-06-05T05:53:41.704Z,16.63
2023-06-05T05:54:43.421Z,16.72
2023-06-05T05:55:45.184Z,16.79
2023-06-05T05:56:46.870Z,16.87
2023-06-05T05:57:48.623Z,16.94
2023-06-05T05:58:50.350Z,17
2023-06-05T05:59:52.098Z,17.05
2023-06-05T06:00:53.814Z,17.13
2023-06-05T06:01:55.590Z,17.2
2023-06-05T06:02:57.376Z,17.26
2023-06-05T06:03:59.090Z,17.32
2023-06-05T06:05:00.739Z,17.4
2023-06-05T06:06:02.476Z,17.45
2023-06-05T06:07:04.280Z,17.53
2023-06-05T06:08:05.942Z,17.61
2023-06-05T06:09:07.695Z,17.68
2023-06-05T06:10:09.409Z,17.75
2023-06-05T06:11:11.544Z,17.84
2023-06-05T06:12:12.880Z,17.92
2023-06-05T06:13:14.628Z,18.01
2023-06-05T06:14:16.357Z,18.09
2023-06-05T06:15:18.101Z,18.15
2023-06-05T06:16:19.901Z,18.25
2023-06-05T06:17:21.570Z,18.3
2023-06-05T06:18:23.279Z,18.38
2023-06-05T06:19:25.257Z,18.44
2023-06-05T06:20:26.785Z,18.5
2023-06-05T06:21:28.509Z,18.56
2023-06-05T06:22:30.225Z,18.61
2023-06-05T06:23:31.958Z,18.68
2023-06-05T06:24:33.803Z,18.71
2023-06-05T06:25:35.404Z,18.78
2023-06-05T06:26:37.147Z,18.86
2023-06-05T06:27:38.884Z,18.94
2023-06-05T06:28:40.660Z,19
2023-06-05T06:29:42.349Z,19.08
2023-06-05T06:30:44.072Z,19.13
2023-06-05T06:31:45.863Z,19.15
2023-06-05T06:32:47.649Z,19.21
2023-06-05T06:33:49.303Z,19.25
2023-06-05T06:34:51.035Z,19.31
2023-06-05T06:35:52.742Z,19.36
2023-06-05T06:36:54.492Z,19.44
2023-06-05T06:37:56.225Z,19.5
2023-06-05T06:38:57.938Z,19.54
2023-06-05T06:39:59.684Z,19.62
2023-06-05T06:41:01.415Z,19.59
2023-06-05T06:42:03.147Z,19.65
2023-06-05T06:43:04.887Z,19.65
2023-06-05T06:44:06.626Z,19.67
2023-06-05T06:45:08.515Z,19.69
2023-06-05T06:46:10.115Z,19.73
2023-06-05T06:47:11.810Z,19.78
2023-06-05T06:48:13.709Z,19.83
2023-06-05T06:49:15.292Z,19.86
2023-06-05T06:50:17.039Z,19.87
2023-06-05T06:51:18.765Z,19.89
2023-06-05T06:52:20.795Z,19.86
2023-06-05T06:53:22.214Z,19.9
2023-06-05T06:54:23.945Z,19.93
2023-06-05T06:55:25.694Z,19.95
2023-06-05T06:56:27.416Z,19.95
2023-06-05T06:57:29.150Z,20.01
2023-06-05T06:58:30.898Z,20.03
2023-06-05T06:59:32.630Z,20.08
2023-06-05T07:00:34.501Z,20.11
2023-06-05T07:01:36.177Z,20.15
2023-06-05T07:02:37.877Z,20.17
2023-06-05T07:03:39.547Z,20.19
2023-06-05T07:04:41.287Z,20.21
2023-06-05T07:05:43.870Z,20.21
2023-06-05T07:06:44.752Z,20.2
2023-06-05T07:07:46.491Z,20.21
2023-06-05T07:08:48.240Z,20.18
2023-06-05T07:09:50.075Z,20.21
2023-06-05T07:10:51.672Z,20.23
2023-06-05T07:11:53.424Z,20.25
2023-06-05T07:12:55.305Z,20.24
2023-06-05T07:13:56.883Z,20.26
2023-06-05T07:14:58.624Z,20.32
2023-06-05T07:16:00.459Z,20.33
2023-06-05T07:17:03.604Z,20.32
2023-06-05T07:18:03.938Z,20.32
2023-06-05T07:19:05.570Z,20.39
2023-06-05T07:20:07.326Z,20.42
2023-06-05T07:21:09.240Z,20.42
2023-06-05T07:22:10.758Z,20.47
2023-06-05T07:23:12.479Z,20.52
2023-06-05T07:24:14.300Z,20.6
2023-06-05T07:25:15.960Z,20.66
2023-06-05T07:26:17.673Z,20.68
2023-06-05T07:27:19.431Z,20.7
2023-06-05T07:28:21.177Z,20.73
2023-06-05T07:29:22.891Z,20.74
2023-06-05T07:30:24.639Z,20.78
2023-06-05T07:31:26.378Z,20.81
2023-06-05T07:32:28.137Z,20.82
2023-06-05T07:33:31.223Z,20.86
2023-06-05T07:34:31.555Z,20.89
2023-06-05T07:35:35.541Z,20.92
2023-06-05T07:36:35.039Z,20.95
2023-06-05T07:37:36.826Z,20.93
2023-06-05T07:38:38.477Z,21.01
2023-06-05T07:39:40.248Z,21.03
2023-06-05T07:40:41.969Z,21.08
2023-06-05T07:41:43.681Z,21.09
2023-06-05T07:42:45.424Z,21.13
2023-06-05T07:43:47.154Z,21.16
2023-06-05T07:44:48.902Z,21.19
2023-06-05T07:45:50.666Z,21.23
2023-06-05T07:46:52.389Z,21.28
2023-06-05T07:47:54.133Z,21.33
2023-06-05T07:48:55.928Z,21.39
2023-06-05T07:49:57.569Z,21.37
2023-06-05T07:50:59.297Z,21.41
2023-06-05T07:52:01.094Z,21.45
2023-06-05T07:53:02.745Z,21.46
2023-06-05T07:54:04.508Z,21.49
2023-06-05T07:55:06.220Z,21.51
2023-06-05T07:56:07.974Z,21.51
2023-06-05T07:57:09.710Z,21.53
2023-06-05T07:58:11.648Z,21.53
2023-06-05T07:59:13.181Z,21.47
2023-06-05T08:00:14.900Z,21.41
2023-06-05T08:01:16.739Z,21.46
2023-06-05T08:02:18.378Z,21.49
2023-06-05T08:03:20.353Z,21.52
2023-06-05T08:04:21.859Z,21.52
2023-06-05T08:05:23.589Z,21.49
2023-06-05T08:06:25.329Z,21.52
2023-06-05T08:07:27.082Z,21.55
2023-06-05T08:08:28.756Z,21.61
2023-06-05T08:09:30.496Z,21.65
2023-06-05T08:10:33.197Z,21.69
2023-06-05T08:11:34.025Z,21.73
2023-06-05T08:12:35.708Z,21.7
2023-06-05T08:13:37.444Z,21.73
2023-06-05T08:14:39.159Z,21.72
2023-06-05T08:15:40.904Z,21.77
2023-06-05T08:16:42.680Z,21.78
2023-06-05T08:17:44.399Z,21.85
2023-06-05T08:18:46.092Z,21.89
2023-06-05T08:19:47.832Z,21.86
2023-06-05T08:20:49.588Z,21.93
2023-06-05T08:21:51.312Z,21.97
2023-06-05T08:22:53.015Z,22.03
2023-06-05T08:23:54.834Z,22.08
2023-06-05T08:24:56.520Z,22.12
2023-06-05T08:25:58.233Z,22.12
2023-06-05T08:26:59.963Z,22.13
2023-06-05T08:28:01.695Z,22.13
2023-06-05T08:29:03.419Z,22.16
2023-06-05T08:30:05.180Z,22.16
2023-06-05T08:31:06.996Z,22.15
2023-06-05T08:32:08.701Z,22.19
2023-06-05T08:33:10.416Z,22.22
2023-06-05T08:34:12.106Z,22.24
2023-06-05T08:35:13.808Z,22.29
2023-06-05T08:36:15.569Z,22.32
2023-06-05T08:37:17.309Z,22.35
2023-06-05T08:38:19.029Z,22.41
2023-06-05T08:39:20.756Z,22.46
2023-06-05T08:40:22.716Z,22.54
2023-06-05T08:41:24.238Z,22.57
2023-06-05T08:42:25.962Z,22.64
2023-06-05T08:43:27.692Z,22.67
2023-06-05T08:44:29.443Z,22.74
2023-06-05T08:45:31.179Z,22.75
2023-06-05T08:46:32.953Z,22.8
2023-06-05T08:47:34.637Z,22.8
2023-06-05T08:48:36.363Z,22.79
2023-06-05T08:49:38.083Z,22.84
2023-06-05T08:50:39.838Z,22.91
2023-06-05T08:51:41.580Z,22.91
2023-06-05T08:52:43.301Z,22.95
2023-06-05T08:53:45.057Z,22.97
2023-06-05T08:54:46.763Z,22.98
2023-06-05T08:55:48.716Z,23.03
2023-06-05T08:57:00.649Z,23.08
2023-06-05T08:58:02.247Z,23.08
2023-06-05T08:59:03.988Z,23.01
2023-06-05T09:00:05.710Z,23.06
2023-06-05T09:01:07.796Z,23.08
2023-06-05T09:02:09.222Z,23.1
2023-06-05T09:03:10.979Z,23.11
2023-06-05T09:04:12.794Z,23.11
2023-06-05T09:05:14.400Z,23.13
2023-06-05T09:06:16.124Z,23.18
2023-06-05T09:07:18.275Z,23.23
2023-06-05T09:08:20.133Z,23.27
2023-06-05T09:09:21.323Z,23.22
2023-06-05T09:10:23.045Z,23.25
2023-06-05T09:11:24.792Z,23.32
2023-06-05T09:12:26.526Z,23.37
2023-06-05T09:13:28.273Z,23.36
2023-06-05T09:14:30.011Z,23.38
2023-06-05T09:15:31.773Z,23.38
2023-06-05T09:16:33.472Z,23.34
2023-06-05T09:17:35.731Z,23.38
2023-06-05T09:18:36.948Z,23.41
2023-06-05T09:19:38.666Z,23.45
2023-06-05T09:20:40.464Z,23.47
2023-06-05T09:21:43.896Z,23.44
2023-06-05T09:22:44.265Z,23.48
2023-06-05T09:23:45.946Z,23.51
2023-06-05T09:24:47.393Z,23.49
2023-06-05T09:25:49.061Z,23.53
2023-06-05T09:26:50.891Z,23.56
2023-06-05T09:27:52.527Z,23.59
2023-06-05T09:28:54.267Z,23.66
2023-06-05T09:29:55.986Z,23.72
2023-06-05T09:30:57.753Z,23.78
2023-06-05T09:31:59.569Z,23.83
2023-06-05T09:33:01.227Z,23.87
2023-06-05T09:34:02.951Z,23.94
2023-06-05T09:35:05.070Z,24
2023-06-05T09:36:06.722Z,24.03
2023-06-05T09:37:08.145Z,24.09
2023-06-05T09:38:09.865Z,24.1
2023-06-05T09:39:11.611Z,24.15
2023-06-05T09:40:13.411Z,24.17
2023-06-05T09:41:15.119Z,24.19
2023-06-05T09:42:16.877Z,24.25
2023-06-05T09:43:18.530Z,24.3
2023-06-05T09:44:20.284Z,24.34
2023-06-05T09:45:21.997Z,24.39
2023-06-05T09:46:23.843Z,24.42
2023-06-05T09:47:25.487Z,24.43
2023-06-05T09:48:27.233Z,24.46
2023-06-05T09:49:29.053Z,24.49
2023-06-05T09:50:30.917Z,24.54
2023-06-05T09:51:32.588Z,24.58
2023-06-05T09:52:34.237Z,24.62
2023-06-05T09:53:35.856Z,24.67
2023-06-05T09:54:37.596Z,24.72
2023-06-05T09:55:39.326Z,24.77
2023-06-05T09:56:41.072Z,24.81
2023-06-05T09:57:42.840Z,24.85
2023-06-05T09:58:44.588Z,24.91
2023-06-05T09:59:46.394Z,24.97
2023-06-05T10:00:48.028Z,24.98
2023-06-05T10:01:49.717Z,25
2023-06-05T10:02:51.599Z,25.03
2023-06-05T10:03:53.227Z,24.99
2023-06-05T10:04:54.929Z,24.94
2023-06-05T10:06:00.982Z,25
2023-06-05T10:06:58.393Z,25
2023-06-05T10:08:00.119Z,25.06
2023-06-05T10:09:01.878Z,25.08
2023-06-05T10:10:03.800Z,25.1
2023-06-05T10:11:05.339Z,25.15
2023-06-05T10:12:07.109Z,25.03
2023-06-05T10:13:08.795Z,25.03
2023-06-05T10:14:10.524Z,25.07
2023-06-05T10:15:13.788Z,25.09
2023-06-05T10:16:18.258Z,25.17
2023-06-05T10:17:15.765Z,25.12
2023-06-05T10:18:17.516Z,25.17
2023-06-05T10:19:19.180Z,25.21
2023-06-05T10:20:20.945Z,25.21
2023-06-05T10:21:22.671Z,25.25
2023-06-05T10:22:24.454Z,25.2
2023-06-05T10:23:26.431Z,25.24
2023-06-05T10:24:27.877Z,25.29
2023-06-05T10:25:31.391Z,25.35
2023-06-05T10:26:31.311Z,25.36
2023-06-05T10:27:33.078Z,25.35
2023-06-05T10:28:34.803Z,25.41
2023-06-05T10:29:36.596Z,25.47
2023-06-05T10:30:38.373Z,25.51
2023-06-05T10:31:40.060Z,25.5
2023-06-05T10:32:41.774Z,25.53
2023-06-05T10:33:43.597Z,25.55
2023-06-05T10:34:45.198Z,25.53
2023-06-05T10:35:46.952Z,25.51
2023-06-05T10:36:48.681Z,25.51
2023-06-05T10:37:50.557Z,25.53
2023-06-05T10:38:52.146Z,25.57
2023-06-05T10:39:53.917Z,25.61
2023-06-05T10:40:55.787Z,25.64
2023-06-05T10:41:57.445Z,25.65
2023-06-05T10:42:59.054Z,25.68
2023-06-05T10:44:00.785Z,25.74
2023-06-05T10:45:02.557Z,25.77
2023-06-05T10:47:06.191Z,25.87
2023-06-05T10:48:07.854Z,25.91
2023-06-05T10:49:09.996Z,25.96
2023-06-05T10:50:11.196Z,26
2023-06-05T10:51:12.927Z,26
2023-06-05T10:52:14.668Z,25.98
2023-06-05T10:53:16.573Z,25.96
2023-06-05T10:54:18.159Z,25.97
2023-06-05T10:55:19.997Z,25.95
2023-06-05T10:56:21.601Z,25.96
2023-06-05T10:57:23.317Z,25.98
2023-06-05T10:58:25.050Z,25.93
2023-06-05T10:59:26.862Z,25.94
2023-06-05T11:00:28.527Z,25.97
2023-06-05T11:01:30.322Z,25.94
2023-06-05T11:02:32.096Z,25.98
2023-06-05T11:03:33.790Z,26.04
2023-06-05T11:04:35.465Z,26.07
2023-06-05T11:05:37.221Z,26.12
2023-06-05T11:06:39.359Z,26.09
2023-06-05T11:07:40.661Z,26.15
2023-06-05T11:08:42.743Z,26.17
2023-06-05T11:09:44.238Z,26.2
2023-06-05T11:10:46.055Z,26.21
2023-06-05T11:11:47.839Z,26.26
2023-06-05T11:12:49.342Z,26.32
2023-06-05T11:13:51.247Z,26.31
2023-06-05T11:14:52.799Z,26.34
2023-06-05T11:15:54.601Z,26.41
2023-06-05T11:16:56.278Z,26.46
2023-06-05T11:17:58.124Z,26.5
2023-06-05T11:18:59.744Z,26.55
2023-06-05T11:20:01.479Z,26.58
2023-06-05T11:21:03.362Z,26.62
2023-06-05T11:22:05.019Z,26.65
2023-06-05T11:23:06.746Z,26.66
2023-06-05T11:24:08.643Z,26.71
2023-06-05T11:25:10.142Z,26.73
2023-06-05T11:26:12.053Z,26.76
2023-06-05T11:27:13.799Z,26.74
2023-06-05T11:28:15.412Z,26.66
2023-06-05T11:29:17.457Z,26.63
2023-06-05T11:30:24.830Z,26.59
2023-06-05T11:31:20.661Z,26.61
2023-06-05T11:32:22.413Z,26.64
2023-06-05T11:33:24.091Z,26.55
2023-06-05T11:34:25.765Z,26.55
2023-06-05T11:35:27.564Z,26.61
2023-06-05T11:36:29.226Z,26.6
2023-06-05T11:37:31.036Z,26.63
2023-06-05T11:38:32.680Z,26.63
2023-06-05T11:39:34.451Z,26.67
2023-06-05T11:40:36.168Z,26.69
2023-06-05T11:41:37.888Z,26.65
2023-06-05T11:42:39.625Z,26.68
2023-06-05T11:43:41.354Z,26.68
2023-06-05T11:44:43.161Z,26.7
2023-06-05T11:45:45.005Z,26.7
2023-06-05T11:46:46.788Z,26.72
2023-06-05T11:47:48.469Z,26.68
2023-06-05T11:48:50.023Z,26.7
2023-06-05T11:49:51.812Z,26.75
2023-06-05T11:50:53.558Z,26.78
2023-06-05T11:51:55.267Z,26.82
2023-06-05T11:52:56.962Z,26.82
2023-06-05T11:53:58.699Z,26.86
2023-06-05T11:55:00.429Z,26.88
2023-06-05T11:56:02.170Z,26.92
2023-06-05T11:57:03.907Z,26.95
2023-06-05T11:58:05.665Z,26.94
2023-06-05T11:59:07.376Z,26.96
2023-06-05T12:00:09.138Z,26.99
2023-06-05T12:01:10.841Z,26.99
2023-06-05T12:02:12.598Z,26.97
2023-06-05T12:03:14.456Z,27.01
2023-06-05T12:04:17.538Z,26.96
2023-06-05T12:05:17.782Z,27.01
2023-06-05T12:06:19.551Z,27.05
2023-06-05T12:07:21.246Z,27.02
2023-06-05T12:08:22.997Z,27
2023-06-05T12:09:24.699Z,27
2023-06-05T12:10:26.463Z,27.01
2023-06-05T12:11:28.175Z,27.01
2023-06-05T12:12:29.922Z,27.05
2023-06-05T12:13:31.646Z,27.05
2023-06-05T12:14:33.387Z,27.09
2023-06-05T12:15:35.211Z,27.06
2023-06-05T12:16:37.067Z,27.12
2023-06-05T12:17:38.814Z,27.1
2023-06-05T12:18:40.317Z,27.08
2023-06-05T12:19:42.051Z,27.05
2023-06-05T12:20:43.779Z,26.95
2023-06-05T12:21:45.526Z,26.97
2023-06-05T12:22:47.251Z,26.96
2023-06-05T12:23:49.080Z,26.98
2023-06-05T12:24:50.842Z,27.01
2023-06-05T12:25:52.452Z,27.01
2023-06-05T12:26:54.197Z,27
2023-06-05T12:27:55.900Z,27
2023-06-05T12:28:57.681Z,27.03
2023-06-05T12:29:59.476Z,27.04
2023-06-05T12:31:01.161Z,27.06
2023-06-05T12:32:02.850Z,27.1
2023-06-05T12:33:04.595Z,27.14
2023-06-05T12:34:06.459Z,27.17
2023-06-05T12:35:09.550Z,27.15
2023-06-05T12:36:10.063Z,27.2
2023-06-05T12:37:12.263Z,27.24
2023-06-05T12:38:13.448Z,27.28
2023-06-05T12:39:15.014Z,27.32
2023-06-05T12:40:28.247Z,27.35
2023-06-05T12:41:18.611Z,27.38
2023-06-05T12:42:20.204Z,27.4
2023-06-05T12:43:22.012Z,27.42
2023-06-05T12:44:23.658Z,27.45
2023-06-05T12:45:25.393Z,27.42
2023-06-05T12:46:27.252Z,27.38
2023-06-05T12:47:28.938Z,27.37
2023-06-05T12:48:30.597Z,27.32
2023-06-05T12:49:33.507Z,27.33
2023-06-05T12:50:34.069Z,27.37
2023-06-05T12:51:36.068Z,27.41
2023-06-05T12:52:37.528Z,27.42
2023-06-05T12:53:39.262Z,27.44
2023-06-05T12:54:41.018Z,27.44
2023-06-05T12:55:42.755Z,27.43
2023-06-05T12:56:44.535Z,27.43
2023-06-05T12:57:46.189Z,27.4
2023-06-05T12:58:47.964Z,27.35
2023-06-05T12:59:49.896Z,27.32
2023-06-05T13:00:51.410Z,27.33
2023-06-05T13:01:53.190Z,27.34
2023-06-05T13:02:54.891Z,27.34
2023-06-05T13:03:56.778Z,27.34
2023-06-05T13:04:58.334Z,27.29
2023-06-05T13:06:00.072Z,27.26
2023-06-05T13:07:01.788Z,27.27
2023-06-05T13:08:03.537Z,27.17
2023-06-05T13:09:05.335Z,27.13
2023-06-05T13:10:06.994Z,27.18
2023-06-05T13:11:09.006Z,27.2
2023-06-05T13:12:10.476Z,27.2
2023-06-05T13:13:12.195Z,27.21
2023-06-05T13:14:13.921Z,27.21
2023-06-05T13:15:15.652Z,27.14
2023-06-05T13:16:17.590Z,27.15
2023-06-05T13:17:19.133Z,27.15
2023-06-05T13:18:20.857Z,27.13
2023-06-05T13:19:22.675Z,27.12
2023-06-05T13:20:24.350Z,27.12
2023-06-05T13:21:26.065Z,27.04
2023-06-05T13:22:27.878Z,26.86
2023-06-05T13:23:29.661Z,26.94
2023-06-05T13:24:31.493Z,26.93
2023-06-05T13:25:32.992Z,26.91
2023-06-05T13:26:34.715Z,26.88
2023-06-05T13:27:36.466Z,26.86
2023-06-05T13:28:38.461Z,26.74
2023-06-05T13:29:39.937Z,26.8
2023-06-05T13:30:41.761Z,26.84
2023-06-05T13:31:43.413Z,26.85
2023-06-05T13:32:45.173Z,26.86
2023-06-05T13:33:46.937Z,26.87
2023-06-05T13:34:48.594Z,26.85